Ramer, Alabama
Current Conditions -  °F | °C
As of 2:53 AM on Saturday 01 Nov 2014 (Local Time) from KTOI Reporting Station
Clear Clear  
Wind Chill: 34°   Ceiling: Unl
Heat Index: 40°   Visibility: 10mi
Dew Point: 24°   Wind: 8mph
Humidity: 53%   Direction: 310°NW
Pressure: 30.12"   Gusts: NA
Location:  32.05°N, 86.22°W
Report Text: KTOI 010753Z AUTO 31007KT 10SM CLR 04/M04 A3012 RMK AO2 SLP199 T00441044
Loading
Personal Weather Stations






























Interactive Weather Map New forecast layout! Learn more

10-Day Weather Forecast

Advertisements
Track Severe Weather on mobile